Time;durP1;ratioP1;P1;durP2;ratioP2;P2;SDS_P1;SDS_P2;PMS_P1;PMS_P2;Temp;Humidity;BMP_temperature;BMP_pressure;BME280_temperature;BME280_humidity;BME280_pressure;Samples;Min_cycle;Max_cycle;Signal;HPM_P1;HPM_P2
2021/07/13 00:01:52;;;;;;;8.03;7.03;;;20.00;99.90;;;;;;5095477;28;20227;-82
2021/07/13 00:04:18;;;;;;;8.07;7.33;;;20.00;99.90;;;;;;5099386;28;20257;-81
2021/07/13 00:06:43;;;;;;;8.00;7.30;;;20.00;99.90;;;;;;5097754;28;20469;-82
2021/07/13 00:09:09;;;;;;;7.70;6.70;;;20.00;99.90;;;;;;5081860;28;20649;-82
2021/07/13 00:11:35;;;;;;;7.73;7.03;;;20.00;99.90;;;;;;5065097;28;20267;-82
2021/07/13 00:14:01;;;;;;;7.00;6.40;;;20.00;99.90;;;;;;5068253;28;20331;-81
2021/07/13 00:16:26;;;;;;;8.23;7.43;;;20.00;99.90;;;;;;5096665;28;20547;-83
2021/07/13 00:18:52;;;;;;;8.10;7.33;;;20.00;99.90;;;;;;5062834;28;20556;-81
2021/07/13 00:21:18;;;;;;;8.23;7.37;;;20.00;99.90;;;;;;5070320;28;20262;-81
2021/07/13 00:23:43;;;;;;;7.30;6.73;;;20.00;99.90;;;;;;5081262;28;20184;-82
2021/07/13 00:26:09;;;;;;;8.17;7.47;;;20.00;99.90;;;;;;5096613;28;20303;-80
2021/07/13 00:28:35;;;;;;;8.10;7.40;;;20.00;99.90;;;;;;5096918;28;20184;-82
2021/07/13 00:31:02;;;;;;;7.37;6.77;;;19.90;99.90;;;;;;5078139;28;20495;-81
2021/07/13 00:33:28;;;;;;;8.70;7.80;;;19.90;99.90;;;;;;5092743;28;20189;-81
2021/07/13 00:35:53;;;;;;;7.80;7.10;;;19.90;99.90;;;;;;5079239;28;20445;-83
2021/07/13 00:38:19;;;;;;;8.43;6.80;;;19.90;99.90;;;;;;5078520;28;20189;-82
2021/07/13 00:40:45;;;;;;;7.53;6.47;;;19.90;99.90;;;;;;5079111;28;20184;-83
2021/07/13 00:43:10;;;;;;;8.17;7.47;;;19.90;99.90;;;;;;5061978;28;20207;-81
2021/07/13 00:45:36;;;;;;;8.17;7.33;;;19.90;99.90;;;;;;5077875;28;20603;-83
2021/07/13 00:48:03;;;;;;;8.33;7.57;;;19.90;99.90;;;;;;5076686;28;20739;-82
2021/07/13 00:50:29;;;;;;;7.60;6.90;;;19.80;99.90;;;;;;5042864;28;20184;-83
2021/07/13 00:52:58;;;;;;;9.17;6.93;;;19.80;99.90;;;;;;5096070;28;20415;-81
2021/07/13 00:55:24;;;;;;;8.40;7.60;;;19.80;99.90;;;;;;5095108;28;20208;-82
2021/07/13 00:57:50;;;;;;;7.23;6.53;;;19.80;99.90;;;;;;5095238;28;20422;-83
2021/07/13 01:00:18;;;;;;;8.03;7.23;;;19.90;99.90;;;;;;5075764;28;20442;-83
2021/07/13 01:02:48;;;;;;;8.60;7.70;;;19.90;99.90;;;;;;5075466;28;20184;-81
2021/07/13 01:05:17;;;;;;;7.90;7.10;;;19.90;99.90;;;;;;5078379;28;20471;-82
2021/07/13 01:08:16;;;;;;;6.97;6.47;;;19.90;99.90;;;;;;5074489;28;20823;-81
2021/07/13 01:11:01;;;;;;;6.97;6.37;;;19.90;99.90;;;;;;5090889;28;20478;-83
2021/07/13 01:13:52;;;;;;;7.90;7.30;;;19.90;99.90;;;;;;5097059;28;20407;-82
2021/07/13 01:16:35;;;;;;;7.80;7.20;;;19.90;99.90;;;;;;5063468;28;20434;-81
2021/07/13 01:19:37;;;;;;;8.27;6.80;;;19.90;99.90;;;;;;5088433;28;20509;-83
2021/07/13 01:22:15;;;;;;;7.87;6.63;;;20.00;99.90;;;;;;5092968;28;20827;-81
2021/07/13 01:25:03;;;;;;;7.00;6.40;;;20.00;99.90;;;;;;5068839;28;20449;-81
2021/07/13 01:27:47;;;;;;;7.80;7.00;;;20.00;99.90;;;;;;5094072;28;20924;-80
2021/07/13 01:30:24;;;;;;;7.90;7.20;;;20.00;99.90;;;;;;5095011;28;20420;-82
2021/07/13 01:33:03;;;;;;;7.50;6.83;;;20.00;99.90;;;;;;5092610;28;20458;-82
2021/07/13 01:35:45;;;;;;;7.80;7.20;;;20.00;99.90;;;;;;5066063;28;20522;-82
2021/07/13 01:38:13;;;;;;;7.83;7.03;;;20.00;99.90;;;;;;5089703;28;20449;-81
2021/07/13 01:40:42;;;;;;;7.97;7.27;;;20.00;99.90;;;;;;5096742;28;20457;-82
2021/07/13 01:43:10;;;;;;;7.30;6.70;;;20.00;99.90;;;;;;5077191;28;21154;-80
2021/07/13 01:45:38;;;;;;;7.43;6.83;;;19.90;99.90;;;;;;5077643;28;20511;-81
2021/07/13 01:48:05;;;;;;;7.10;6.60;;;20.00;99.90;;;;;;5074305;28;20491;-81
2021/07/13 01:50:32;;;;;;;7.27;6.73;;;19.90;99.90;;;;;;5087184;28;20461;-80
2021/07/13 01:52:58;;;;;;;7.40;6.90;;;19.90;99.90;;;;;;5074442;28;20477;-81
2021/07/13 01:55:24;;;;;;;8.07;7.27;;;19.90;99.90;;;;;;5084590;28;20469;-81
2021/07/13 01:57:53;;;;;;;8.17;7.37;;;19.90;99.90;;;;;;5094538;28;20442;-83
2021/07/13 02:00:19;;;;;;;7.90;7.20;;;19.90;99.90;;;;;;5094857;28;20501;-82
2021/07/13 02:02:48;;;;;;;7.70;7.03;;;19.90;99.90;;;;;;5060266;28;20438;-82
2021/07/13 02:05:15;;;;;;;8.57;7.87;;;19.90;99.90;;;;;;5050112;28;20450;-80
2021/07/13 02:07:49;;;;;;;8.90;8.20;;;19.90;99.90;;;;;;5073332;28;20491;-82
2021/07/13 02:10:16;;;;;;;9.80;8.30;;;19.90;99.90;;;;;;5069360;28;20410;-82
2021/07/13 02:12:42;;;;;;;9.03;8.23;;;19.90;99.90;;;;;;5094503;28;20415;-82
2021/07/13 02:15:08;;;;;;;8.33;7.63;;;19.90;99.90;;;;;;5094246;28;20442;-82
2021/07/13 02:17:34;;;;;;;10.80;7.77;;;20.00;99.90;;;;;;5093253;28;20431;-80
2021/07/13 02:20:03;;;;;;;8.97;8.13;;;20.00;99.90;;;;;;5094766;28;20762;-82
2021/07/13 02:22:28;;;;;;;9.10;8.20;;;20.00;99.90;;;;;;5093792;28;20213;-82
2021/07/13 02:24:54;;;;;;;7.80;7.10;;;20.00;99.90;;;;;;5076333;28;20458;-82
2021/07/13 02:27:20;;;;;;;7.80;7.20;;;20.00;99.90;;;;;;5043709;28;20743;-81
2021/07/13 02:30:02;;;;;;;8.23;7.53;;;20.10;99.90;;;;;;5082080;28;20203;-82
2021/07/13 02:32:33;;;;;;;7.57;6.97;;;20.10;99.90;;;;;;5078363;28;20542;-81
2021/07/13 02:35:05;;;;;;;9.63;7.40;;;20.10;99.90;;;;;;5066718;28;20443;-80
2021/07/13 02:37:31;;;;;;;9.23;8.43;;;20.10;99.90;;;;;;5069014;28;20430;-81
2021/07/13 02:39:58;;;;;;;10.13;7.47;;;20.00;99.90;;;;;;5055698;28;20764;-81
2021/07/13 02:42:25;;;;;;;8.50;7.57;;;20.00;99.90;;;;;;5095429;28;20902;-81
2021/07/13 02:44:53;;;;;;;8.00;7.20;;;20.00;99.90;;;;;;5094791;28;20794;-82
2021/07/13 02:47:19;;;;;;;7.80;7.00;;;20.00;99.90;;;;;;5076235;28;20455;-82
2021/07/13 02:49:50;;;;;;;8.50;7.70;;;20.00;99.90;;;;;;5071094;28;20669;-82
2021/07/13 02:52:23;;;;;;;7.73;7.03;;;20.00;99.90;;;;;;5094705;28;20169;-81
2021/07/13 02:54:54;;;;;;;8.03;7.33;;;20.00;99.90;;;;;;5093118;28;20439;-82
2021/07/13 02:57:22;;;;;;;8.53;7.77;;;20.00;99.90;;;;;;5056554;28;20946;-82
2021/07/13 02:59:48;;;;;;;8.17;7.47;;;20.00;99.90;;;;;;5092349;28;20827;-83
2021/07/13 03:02:15;;;;;;;8.50;7.70;;;20.00;99.90;;;;;;5075970;28;20844;-82
2021/07/13 03:04:42;;;;;;;8.60;7.90;;;20.00;99.90;;;;;;5087627;28;20471;-82
2021/07/13 03:07:10;;;;;;;9.00;8.30;;;20.00;99.90;;;;;;5087367;28;20553;-82
2021/07/13 03:09:37;;;;;;;8.33;7.63;;;20.00;99.90;;;;;;5095404;28;20422;-81
2021/07/13 03:12:06;;;;;;;8.73;8.00;;;19.90;99.90;;;;;;5060361;28;20414;-81
2021/07/13 03:14:33;;;;;;;9.30;8.50;;;19.90;99.90;;;;;;5067520;28;20442;-81
2021/07/13 03:16:59;;;;;;;9.57;8.77;;;19.90;99.90;;;;;;5079933;28;20793;-82
2021/07/13 03:19:24;;;;;;;8.53;7.80;;;19.80;99.90;;;;;;5080567;28;20414;-82
2021/07/13 03:21:54;;;;;;;8.77;7.97;;;19.80;99.90;;;;;;5095913;28;20419;-80
2021/07/13 03:24:21;;;;;;;9.23;8.43;;;19.80;99.90;;;;;;5077165;28;20205;-81
2021/07/13 03:26:48;;;;;;;9.40;8.50;;;19.70;99.90;;;;;;5058250;28;20473;-81
2021/07/13 03:29:15;;;;;;;8.47;7.77;;;19.60;99.90;;;;;;5077173;28;20429;-82
2021/07/13 03:31:42;;;;;;;10.00;9.00;;;19.60;99.90;;;;;;5092900;28;20428;-82
2021/07/13 03:34:08;;;;;;;9.70;8.73;;;19.50;99.90;;;;;;5080580;28;20438;-81
2021/07/13 03:36:34;;;;;;;10.23;9.27;;;19.50;99.90;;;;;;5096568;28;20444;-83
2021/07/13 03:39:01;;;;;;;11.00;9.90;;;19.50;99.90;;;;;;5079785;28;20480;-83
2021/07/13 03:41:28;;;;;;;10.17;9.27;;;19.50;99.90;;;;;;5079375;28;20437;-80
2021/07/13 03:43:56;;;;;;;10.70;9.70;;;19.50;99.90;;;;;;5095933;28;20548;-81
2021/07/13 03:46:24;;;;;;;10.30;9.30;;;19.40;99.90;;;;;;5049685;28;20492;-81
2021/07/13 03:48:50;;;;;;;11.20;10.10;;;19.40;99.90;;;;;;5095875;28;20438;-83
2021/07/13 03:51:38;;;;;;;10.93;9.93;;;19.30;99.90;;;;;;5062895;28;20434;-82
2021/07/13 03:54:04;;;;;;;11.37;10.27;;;19.30;99.90;;;;;;5079311;28;20496;-83
2021/07/13 03:56:30;;;;;;;10.80;9.80;;;19.30;99.90;;;;;;5062528;28;20501;-83
2021/07/13 03:58:55;;;;;;;11.53;10.33;;;19.20;99.90;;;;;;5079435;28;20514;-82
2021/07/13 04:01:21;;;;;;;11.60;10.40;;;19.20;99.90;;;;;;5097649;28;20450;-81
2021/07/13 04:03:47;;;;;;;11.60;10.67;;;19.20;99.90;;;;;;5096187;28;20687;-82
2021/07/13 04:06:13;;;;;;;11.47;10.47;;;19.20;99.90;;;;;;5068124;28;20463;-82
2021/07/13 04:08:39;;;;;;;12.40;11.20;;;19.10;99.90;;;;;;5096341;28;20686;-81
2021/07/13 04:11:04;;;;;;;11.93;10.93;;;19.10;99.90;;;;;;5095886;28;20278;-83
2021/07/13 04:13:30;;;;;;;12.37;11.10;;;19.10;99.90;;;;;;5050930;28;20556;-81
2021/07/13 04:15:56;;;;;;;11.03;10.00;;;19.00;99.90;;;;;;5094027;28;20909;-81
2021/07/13 04:18:22;;;;;;;11.60;10.67;;;19.00;99.90;;;;;;5092996;28;20203;-82
2021/07/13 04:20:47;;;;;;;12.90;11.60;;;19.00;99.90;;;;;;5085464;28;20515;-82
2021/07/13 04:23:13;;;;;;;14.37;11.97;;;19.10;99.90;;;;;;5062728;28;20426;-81
2021/07/13 04:25:39;;;;;;;12.60;11.40;;;19.00;99.90;;;;;;5078695;28;20596;-81
2021/07/13 04:28:05;;;;;;;13.27;11.93;;;19.00;99.90;;;;;;5059329;28;20311;-83
2021/07/13 04:30:30;;;;;;;13.40;12.20;;;19.00;99.90;;;;;;5072905;28;20260;-82
2021/07/13 04:32:56;;;;;;;12.80;11.60;;;19.00;99.90;;;;;;5086238;28;20275;-80
2021/07/13 04:35:21;;;;;;;13.33;11.87;;;19.00;99.90;;;;;;5071557;28;20217;-81
2021/07/13 04:37:47;;;;;;;14.30;12.37;;;19.00;99.90;;;;;;5058152;28;20772;-82
2021/07/13 04:40:13;;;;;;;13.17;11.97;;;19.00;99.90;;;;;;5059161;28;20200;-82
2021/07/13 04:42:39;;;;;;;13.80;12.50;;;19.00;99.90;;;;;;5092704;28;20191;-82
2021/07/13 04:45:06;;;;;;;13.77;12.57;;;18.90;99.90;;;;;;5096654;28;20212;-81
2021/07/13 04:47:31;;;;;;;13.17;11.93;;;19.00;99.90;;;;;;5053572;28;21108;-82
2021/07/13 04:49:57;;;;;;;13.30;12.10;;;18.90;99.90;;;;;;5094857;28;20410;-81
2021/07/13 04:52:23;;;;;;;13.70;12.20;;;19.00;99.90;;;;;;5088580;28;20901;-81
2021/07/13 04:54:48;;;;;;;13.40;12.20;;;18.90;99.90;;;;;;5095675;28;20597;-81
2021/07/13 04:57:14;;;;;;;13.57;12.37;;;18.90;99.90;;;;;;5061751;28;20196;-81
2021/07/13 04:59:40;;;;;;;13.93;12.67;;;18.90;99.90;;;;;;5095595;28;20240;-82
2021/07/13 05:02:05;;;;;;;15.03;13.50;;;18.90;99.90;;;;;;5096876;28;20229;-82
2021/07/13 05:04:31;;;;;;;14.33;12.97;;;18.90;99.90;;;;;;5085402;28;20290;-81
2021/07/13 05:06:57;;;;;;;16.10;13.90;;;18.90;99.90;;;;;;5083275;28;20204;-82
2021/07/13 05:09:22;;;;;;;15.50;13.03;;;18.90;99.90;;;;;;5067821;28;20181;-82
2021/07/13 05:11:48;;;;;;;14.90;13.60;;;18.90;99.90;;;;;;5085204;28;20187;-82
2021/07/13 05:14:14;;;;;;;15.17;13.60;;;19.00;99.90;;;;;;5081145;28;20625;-80
2021/07/13 05:16:40;;;;;;;15.57;12.50;;;18.90;99.90;;;;;;5078201;28;20199;-81
2021/07/13 05:19:08;;;;;;;15.10;13.70;;;18.90;99.90;;;;;;5086110;28;20192;-81
2021/07/13 05:21:33;;;;;;;15.67;13.30;;;18.90;99.90;;;;;;5062083;28;20207;-81
2021/07/13 05:23:59;;;;;;;15.17;13.77;;;19.00;99.90;;;;;;5071744;28;20878;-81
2021/07/13 05:26:25;;;;;;;14.80;13.20;;;18.90;99.90;;;;;;5085166;28;20208;-82
2021/07/13 05:28:51;;;;;;;15.20;13.60;;;18.90;99.90;;;;;;5077272;28;20199;-82
2021/07/13 05:31:17;;;;;;;15.80;14.33;;;19.00;99.90;;;;;;5078178;28;20480;-82
2021/07/13 05:33:43;;;;;;;16.70;15.00;;;19.00;99.90;;;;;;5074995;28;20431;-81
2021/07/13 05:36:09;;;;;;;17.20;15.50;;;19.10;99.90;;;;;;5091847;28;20436;-81
2021/07/13 05:38:35;;;;;;;16.13;14.47;;;19.10;99.90;;;;;;5061449;28;20606;-81
2021/07/13 05:41:00;;;;;;;16.23;14.63;;;19.20;99.90;;;;;;5095965;28;20220;-81
2021/07/13 05:43:26;;;;;;;16.60;14.90;;;19.20;99.90;;;;;;5094699;28;20216;-82
2021/07/13 05:45:52;;;;;;;16.77;15.13;;;19.20;99.90;;;;;;5074447;28;20675;-82
2021/07/13 05:48:17;;;;;;;16.77;15.10;;;19.20;99.90;;;;;;5059568;28;20208;-82
2021/07/13 05:50:43;;;;;;;16.37;14.87;;;19.20;99.90;;;;;;5078243;28;20676;-80
2021/07/13 05:53:09;;;;;;;18.23;15.80;;;19.20;99.90;;;;;;5096544;28;20333;-82
2021/07/13 05:55:37;;;;;;;17.70;16.00;;;19.20;99.90;;;;;;5057455;28;20311;-82
2021/07/13 05:58:03;;;;;;;17.13;15.53;;;19.20;99.90;;;;;;5075910;28;20793;-82
2021/07/13 06:00:28;;;;;;;19.43;17.27;;;19.20;99.90;;;;;;5084529;28;20455;-80
2021/07/13 06:02:54;;;;;;;18.83;16.97;;;19.20;99.90;;;;;;5071505;28;20189;-82
2021/07/13 06:05:20;;;;;;;19.47;17.47;;;19.30;99.90;;;;;;5072897;28;20196;-81
2021/07/13 06:07:47;;;;;;;19.30;17.40;;;19.20;99.90;;;;;;5091821;28;20204;-81
2021/07/13 06:10:14;;;;;;;19.00;16.93;;;19.30;99.90;;;;;;5094531;28;20890;-82
2021/07/13 06:12:40;;;;;;;20.30;17.37;;;19.30;99.90;;;;;;5076588;28;20490;-82
2021/07/13 06:15:07;;;;;;;19.50;17.50;;;19.30;99.90;;;;;;5092935;28;20430;-82
2021/07/13 06:17:33;;;;;;;21.47;18.43;;;19.20;99.90;;;;;;5093935;28;20426;-82
2021/07/13 06:19:59;;;;;;;20.37;18.33;;;19.20;99.90;;;;;;5075548;28;20434;-82
2021/07/13 06:22:25;;;;;;;20.37;18.37;;;19.20;99.90;;;;;;5062973;28;20519;-82
2021/07/13 06:24:50;;;;;;;21.27;19.00;;;19.20;99.90;;;;;;5057711;28;20532;-82
2021/07/13 06:27:16;;;;;;;22.07;19.70;;;19.20;99.90;;;;;;5071170;28;20326;-82
2021/07/13 06:29:42;;;;;;;22.30;20.10;;;19.20;99.90;;;;;;5096632;28;20271;-81
2021/07/13 06:32:09;;;;;;;23.10;20.40;;;19.20;99.90;;;;;;5096109;28;20214;-82
2021/07/13 06:34:35;;;;;;;21.60;19.40;;;19.20;99.90;;;;;;5095416;28;20740;-81
2021/07/13 06:37:00;;;;;;;21.53;19.30;;;19.20;99.90;;;;;;5078851;28;20460;-82
2021/07/13 06:39:26;;;;;;;22.30;19.90;;;19.20;99.90;;;;;;5094870;28;20184;-80
2021/07/13 06:41:53;;;;;;;24.50;21.83;;;19.30;99.90;;;;;;5095949;28;20267;-81
2021/07/13 06:44:19;;;;;;;25.00;22.40;;;19.20;99.90;;;;;;5093652;28;20238;-80
2021/07/13 06:46:44;;;;;;;27.57;24.17;;;19.30;99.90;;;;;;5077525;28;20466;-82
2021/07/13 06:49:10;;;;;;;24.50;22.00;;;19.30;99.90;;;;;;5058886;28;20406;-81
2021/07/13 06:51:36;;;;;;;28.33;25.43;;;19.30;99.90;;;;;;5095616;28;20661;-82
2021/07/13 06:54:02;;;;;;;28.23;25.33;;;19.30;99.90;;;;;;5094437;28;20248;-81
2021/07/13 06:56:28;;;;;;;29.83;25.13;;;19.20;99.90;;;;;;5095785;28;20272;-81
2021/07/13 06:58:54;;;;;;;29.60;26.63;;;19.30;99.90;;;;;;5094173;28;20445;-81
2021/07/13 07:01:20;;;;;;;26.87;24.17;;;19.30;99.90;;;;;;5094487;28;20446;-81
2021/07/13 07:03:46;;;;;;;31.80;25.90;;;19.30;99.90;;;;;;5077617;28;20438;-81
2021/07/13 07:06:11;;;;;;;26.87;24.17;;;19.30;99.90;;;;;;5093820;28;20203;-81
2021/07/13 07:08:37;;;;;;;26.37;23.57;;;19.30;99.90;;;;;;5068458;28;20678;-82
2021/07/13 07:11:03;;;;;;;27.70;24.87;;;19.40;99.90;;;;;;5094822;28;20172;-81
2021/07/13 07:13:29;;;;;;;28.87;25.70;;;19.40;99.90;;;;;;5074237;28;20226;-82
2021/07/13 07:15:54;;;;;;;29.73;26.63;;;19.50;99.90;;;;;;5091237;28;20293;-80
2021/07/13 07:18:20;;;;;;;26.47;23.67;;;19.50;99.90;;;;;;5094447;28;20313;-82
2021/07/13 07:20:45;;;;;;;28.17;25.27;;;19.50;99.90;;;;;;5073875;28;20196;-81
2021/07/13 07:23:11;;;;;;;27.77;24.77;;;19.50;99.90;;;;;;5093926;28;20545;-81
2021/07/13 07:25:37;;;;;;;25.03;22.43;;;19.50;99.90;;;;;;5057400;28;20225;-80
2021/07/13 07:28:03;;;;;;;25.43;22.63;;;19.50;99.90;;;;;;5068485;28;20298;-81
2021/07/13 07:30:29;;;;;;;25.77;23.17;;;19.60;99.90;;;;;;5093518;28;20192;-82
2021/07/13 07:32:56;;;;;;;26.80;23.90;;;19.60;99.90;;;;;;5093803;28;20414;-81
2021/07/13 07:35:22;;;;;;;28.03;25.00;;;19.60;99.90;;;;;;5072590;28;20481;-82
2021/07/13 07:37:49;;;;;;;31.67;27.97;;;19.60;99.90;;;;;;5094705;28;20550;-82
2021/07/13 07:40:17;;;;;;;29.20;26.20;;;19.60;99.90;;;;;;5077628;28;20479;-82
2021/07/13 07:42:51;;;;;;;31.83;28.40;;;19.70;99.90;;;;;;5094938;28;20511;-82
2021/07/13 07:45:18;;;;;;;29.40;26.17;;;19.70;99.90;;;;;;5107039;28;20474;-83
2021/07/13 07:47:45;;;;;;;30.03;26.77;;;19.70;99.90;;;;;;5069962;28;20462;-82
2021/07/13 07:50:11;;;;;;;32.50;29.00;;;19.70;99.90;;;;;;5077166;28;20483;-82
2021/07/13 07:52:37;;;;;;;31.53;27.97;;;19.80;99.90;;;;;;5093537;28;20431;-82
2021/07/13 07:55:05;;;;;;;29.53;26.43;;;19.80;99.90;;;;;;5094008;28;20442;-82
2021/07/13 07:57:30;;;;;;;30.27;26.97;;;19.80;99.90;;;;;;5076519;28;20442;-81
2021/07/13 07:59:56;;;;;;;29.63;26.43;;;19.90;99.90;;;;;;5064503;28;20445;-81
2021/07/13 08:02:22;;;;;;;28.30;25.17;;;19.90;99.90;;;;;;5077717;28;20193;-81
2021/07/13 08:04:47;;;;;;;26.20;23.50;;;19.90;99.90;;;;;;5096724;28;20214;-81
2021/07/13 08:07:13;;;;;;;28.43;25.40;;;19.90;99.90;;;;;;5075479;28;20209;-82
2021/07/13 08:09:39;;;;;;;25.90;23.23;;;19.90;99.90;;;;;;5080315;28;20212;-81
2021/07/13 08:12:05;;;;;;;30.33;25.57;;;20.00;99.90;;;;;;5080097;28;20180;-81
2021/07/13 08:14:31;;;;;;;30.90;26.33;;;20.00;99.90;;;;;;5096686;28;20658;-82
2021/07/13 08:16:57;;;;;;;28.13;25.13;;;20.10;99.90;;;;;;5079632;28;20419;-82
2021/07/13 08:19:23;;;;;;;30.90;26.87;;;20.10;99.90;;;;;;5097788;28;20532;-82
2021/07/13 08:21:49;;;;;;;27.87;25.03;;;20.10;99.90;;;;;;5096659;28;20249;-82
2021/07/13 08:24:16;;;;;;;30.07;26.70;;;20.10;99.90;;;;;;5071034;28;20535;-81
2021/07/13 08:26:41;;;;;;;30.97;27.37;;;20.20;99.90;;;;;;5080547;28;20466;-82
2021/07/13 08:29:07;;;;;;;32.10;28.70;;;20.20;99.90;;;;;;5081415;28;20445;-81
2021/07/13 08:31:34;;;;;;;32.63;28.97;;;20.30;99.90;;;;;;5096144;28;20254;-82
2021/07/13 08:34:00;;;;;;;31.93;28.53;;;20.40;99.90;;;;;;5062345;28;20208;-82
2021/07/13 08:36:26;;;;;;;31.73;28.40;;;20.40;99.90;;;;;;5090217;28;20492;-81
2021/07/13 08:38:51;;;;;;;31.83;28.43;;;20.40;99.90;;;;;;5092995;28;20422;-81
2021/07/13 08:41:21;;;;;;;32.07;28.77;;;20.40;99.90;;;;;;5076777;28;20189;-82
2021/07/13 08:43:48;;;;;;;31.90;28.60;;;20.40;99.90;;;;;;5096685;28;20189;-80
2021/07/13 08:46:14;;;;;;;32.67;29.07;;;20.40;99.90;;;;;;5079753;28;20415;-81
2021/07/13 08:48:41;;;;;;;36.40;30.13;;;20.40;99.90;;;;;;5072639;28;20443;-82
2021/07/13 08:51:08;;;;;;;30.03;26.93;;;20.40;99.90;;;;;;5090421;28;20941;-82
2021/07/13 08:53:34;;;;;;;32.10;28.60;;;20.30;99.90;;;;;;5080058;28;20418;-82
2021/07/13 08:55:59;;;;;;;32.70;29.20;;;20.30;99.90;;;;;;5099028;28;20449;-82
2021/07/13 08:58:26;;;;;;;32.13;28.73;;;20.40;99.90;;;;;;5079963;28;20415;-81
2021/07/13 09:00:52;;;;;;;33.80;30.30;;;20.40;99.90;;;;;;5082340;28;20184;-82
2021/07/13 09:03:20;;;;;;;29.57;26.47;;;20.40;99.90;;;;;;5100974;28;20436;-81
2021/07/13 09:05:54;;;;;;;35.53;30.23;;;20.40;99.90;;;;;;5097643;28;20465;-81
2021/07/13 09:08:31;;;;;;;32.60;29.10;;;20.50;99.90;;;;;;5071427;28;20864;-82
2021/07/13 09:11:33;;;;;;;32.80;29.40;;;20.50;99.90;;;;;;5065703;28;20512;-81
2021/07/13 09:14:03;;;;;;;35.23;28.60;;;20.60;99.90;;;;;;5053254;28;20442;-82
2021/07/13 09:16:30;;;;;;;33.43;30.00;;;20.60;99.90;;;;;;5081480;28;20418;-82
2021/07/13 09:18:58;;;;;;;34.30;29.50;;;20.70;99.90;;;;;;5085142;28;20415;-82
2021/07/13 09:21:34;;;;;;;31.07;27.73;;;20.90;99.90;;;;;;5078601;28;20441;-81
2021/07/13 09:24:16;;;;;;;30.83;27.60;;;21.00;99.90;;;;;;5096297;28;20438;-81
2021/07/13 09:26:53;;;;;;;28.53;25.50;;;21.10;99.90;;;;;;5089032;28;21142;-82
2021/07/13 09:29:48;;;;;;;31.17;27.97;;;21.30;99.90;;;;;;5083980;28;20406;-82
2021/07/13 09:32:35;;;;;;;29.20;26.20;;;21.40;99.90;;;;;;5093728;28;20407;-82
2021/07/13 09:35:05;;;;;;;29.70;26.70;;;21.40;99.90;;;;;;5095393;28;20440;-81
2021/07/13 09:37:39;;;;;;;27.73;25.00;;;21.40;99.90;;;;;;5074764;28;20523;-82
2021/07/13 09:40:12;;;;;;;27.87;23.07;;;21.50;99.90;;;;;;5093238;28;20442;-82
2021/07/13 09:42:48;;;;;;;29.10;26.13;;;21.50;99.90;;;;;;5095577;28;20809;-82
2021/07/13 09:45:21;;;;;;;27.10;24.30;;;21.60;99.90;;;;;;5075306;28;20427;-82
2021/07/13 09:47:49;;;;;;;24.10;21.70;;;21.60;99.90;;;;;;5085969;28;20473;-80
2021/07/13 09:50:34;;;;;;;25.57;23.07;;;21.60;99.90;;;;;;5096207;28;20417;-81
2021/07/13 09:53:02;;;;;;;24.27;21.97;;;21.70;99.90;;;;;;5095177;28;20435;-81
2021/07/13 09:55:28;;;;;;;27.53;24.70;;;21.60;99.90;;;;;;5095732;28;20446;-81
2021/07/13 09:58:15;;;;;;;24.90;22.27;;;21.60;99.90;;;;;;5080319;28;20429;-81
2021/07/13 10:00:42;;;;;;;24.10;21.70;;;21.70;99.90;;;;;;5098481;28;20433;-82
2021/07/13 10:03:11;;;;;;;26.03;23.40;;;21.80;99.90;;;;;;5098962;28;20421;-83
2021/07/13 10:05:39;;;;;;;24.47;21.70;;;21.90;99.90;;;;;;5096193;28;20442;-82
2021/07/13 10:08:06;;;;;;;26.23;23.73;;;21.90;99.90;;;;;;5095116;28;20473;-82
2021/07/13 10:10:33;;;;;;;25.60;23.03;;;22.00;99.90;;;;;;5099535;28;20406;-81
2021/07/13 10:12:59;;;;;;;23.10;20.90;;;22.00;99.90;;;;;;5100137;28;20497;-82
2021/07/13 10:15:26;;;;;;;21.70;19.50;;;22.00;99.90;;;;;;5096087;28;20521;-81
2021/07/13 10:17:52;;;;;;;24.20;21.90;;;22.10;99.90;;;;;;5096090;28;20425;-81
2021/07/13 10:20:22;;;;;;;23.63;21.33;;;22.10;99.90;;;;;;5078731;28;20435;-82
2021/07/13 10:22:49;;;;;;;24.70;22.17;;;22.10;99.90;;;;;;5089531;28;20531;-81
2021/07/13 10:25:15;;;;;;;22.90;20.70;;;22.10;99.90;;;;;;5080663;28;20646;-80
2021/07/13 10:27:48;;;;;;;22.00;19.80;;;22.20;99.90;;;;;;5087188;28;20454;-82
2021/07/13 10:30:17;;;;;;;23.10;20.70;;;22.20;99.90;;;;;;5091417;28;20685;-81
2021/07/13 10:32:43;;;;;;;20.47;18.50;;;22.20;99.90;;;;;;5094575;28;20406;-82
2021/07/13 10:35:27;;;;;;;20.77;18.80;;;22.20;99.90;;;;;;5061172;28;20435;-82
2021/07/13 10:37:53;;;;;;;21.27;19.20;;;22.20;99.90;;;;;;5093765;28;20426;-83
2021/07/13 10:40:24;;;;;;;19.53;17.70;;;22.20;99.90;;;;;;5095415;28;20412;-82
2021/07/13 10:42:57;;;;;;;19.30;17.30;;;22.20;99.90;;;;;;5095365;28;20225;-82
2021/07/13 10:45:29;;;;;;;18.70;17.00;;;22.20;99.90;;;;;;5086936;28;20434;-82
2021/07/13 10:48:21;;;;;;;19.10;17.30;;;22.30;99.90;;;;;;5094802;28;20449;-83
2021/07/13 10:50:48;;;;;;;16.00;14.40;;;22.30;99.90;;;;;;5099918;28;20531;-79
2021/07/13 10:53:18;;;;;;;18.20;16.60;;;22.30;99.90;;;;;;5071392;28;20419;-82
2021/07/13 10:56:08;;;;;;;22.57;20.27;;;22.30;99.90;;;;;;5097522;28;20976;-82
2021/07/13 10:58:38;;;;;;;19.10;17.20;;;22.30;99.90;;;;;;5084605;28;20406;-81
2021/07/13 11:01:09;;;;;;;18.10;16.47;;;22.20;99.90;;;;;;5095967;28;20467;-81
2021/07/13 11:03:38;;;;;;;20.03;18.13;;;22.30;99.90;;;;;;5096617;28;20414;-82
2021/07/13 11:06:11;;;;;;;17.07;15.57;;;22.20;99.90;;;;;;5096236;28;20414;-82
2021/07/13 11:11:15;;;;;;;17.73;16.03;;;22.40;99.90;;;;;;5098241;28;20406;-82
2021/07/13 11:13:45;;;;;;;19.10;17.23;;;22.50;99.90;;;;;;5079671;28;20426;-82
2021/07/13 11:16:11;;;;;;;16.50;15.00;;;22.50;99.90;;;;;;5091440;28;20410;-82
2021/07/13 11:18:38;;;;;;;17.20;15.70;;;22.50;99.90;;;;;;5096474;28;20417;-83
2021/07/13 11:21:21;;;;;;;17.13;15.63;;;22.60;99.90;;;;;;5096707;28;20893;-83
2021/07/13 11:23:49;;;;;;;17.40;15.70;;;22.60;99.90;;;;;;5093792;28;20445;-82
2021/07/13 11:26:16;;;;;;;18.57;16.97;;;22.50;99.90;;;;;;5093987;28;20461;-83
2021/07/13 11:28:49;;;;;;;18.57;16.77;;;22.60;99.90;;;;;;5080397;28;20895;-81
2021/07/13 11:31:20;;;;;;;17.50;15.90;;;22.60;99.90;;;;;;5075981;28;20412;-81
2021/07/13 11:33:55;;;;;;;19.53;17.83;;;22.60;99.90;;;;;;5095165;28;20411;-83
2021/07/13 11:36:41;;;;;;;19.00;17.30;;;22.60;99.90;;;;;;5097975;28;20459;-81
2021/07/13 11:39:15;;;;;;;18.30;16.50;;;22.50;99.90;;;;;;5093361;28;20426;-82
2021/07/13 11:41:42;;;;;;;16.53;15.13;;;22.50;99.90;;;;;;5097835;28;20422;-81
2021/07/13 11:44:10;;;;;;;17.70;16.10;;;22.40;99.90;;;;;;5071472;28;20439;-81
2021/07/13 11:46:39;;;;;;;14.33;13.13;;;22.40;99.90;;;;;;5094526;28;20479;-83
2021/07/13 11:49:23;;;;;;;14.27;12.77;;;22.50;99.90;;;;;;5061756;28;20455;-82
2021/07/13 11:52:01;;;;;;;12.47;11.37;;;22.50;99.90;;;;;;5098312;28;20407;-82
2021/07/13 11:54:38;;;;;;;10.93;9.93;;;22.50;99.90;;;;;;5088227;28;20438;-83
2021/07/13 11:57:05;;;;;;;10.23;8.93;;;22.50;99.90;;;;;;5098360;28;21021;-82
2021/07/13 11:59:33;;;;;;;9.70;8.80;;;22.50;99.90;;;;;;5098336;28;20453;-82
2021/07/13 12:02:08;;;;;;;10.20;9.30;;;22.60;99.90;;;;;;5098350;28;20426;-83
2021/07/13 12:04:52;;;;;;;10.10;9.10;;;22.60;99.90;;;;;;5099384;28;20984;-83
2021/07/13 12:07:19;;;;;;;9.77;8.97;;;22.70;99.90;;;;;;5079534;28;20955;-82
2021/07/13 12:09:45;;;;;;;10.07;9.20;;;22.70;99.90;;;;;;5080976;28;20923;-83
2021/07/13 12:12:13;;;;;;;10.73;9.73;;;22.80;99.90;;;;;;5069064;28;20428;-81
2021/07/13 12:14:50;;;;;;;10.87;9.87;;;22.80;99.90;;;;;;5086006;28;20437;-81
2021/07/13 12:17:20;;;;;;;10.53;9.53;;;22.80;99.90;;;;;;5080898;28;20931;-81
2021/07/13 12:19:47;;;;;;;10.00;9.10;;;22.80;99.90;;;;;;5097661;28;20516;-82
2021/07/13 12:22:21;;;;;;;10.33;9.43;;;22.80;99.90;;;;;;5096795;28;20527;-82
2021/07/13 12:24:48;;;;;;;10.33;9.43;;;22.70;99.90;;;;;;5080120;28;20445;-80
2021/07/13 12:27:18;;;;;;;10.60;9.70;;;22.70;99.90;;;;;;5098109;28;20458;-82
2021/07/13 12:29:45;;;;;;;11.03;10.03;;;22.60;99.90;;;;;;5099277;28;20754;-80
2021/07/13 12:32:38;;;;;;;10.40;9.50;;;22.60;99.90;;;;;;5096684;28;20415;-82
2021/07/13 12:35:07;;;;;;;10.40;8.87;;;22.70;99.90;;;;;;5077088;28;20447;-82
2021/07/13 12:37:33;;;;;;;8.77;7.87;;;22.70;99.90;;;;;;5097816;28;20430;-82
2021/07/13 12:39:59;;;;;;;9.60;8.70;;;22.80;99.90;;;;;;5093806;28;20415;-82
2021/07/13 12:42:31;;;;;;;9.63;8.73;;;22.80;99.90;;;;;;5096639;28;20195;-82
2021/07/13 12:45:06;;;;;;;9.33;8.03;;;22.80;99.90;;;;;;5096797;28;20204;-82